Time;durP1;ratioP1;P1;durP2;ratioP2;P2;SDS_P1;SDS_P2;PMS_P1;PMS_P2;Temp;Humidity;BMP_temperature;BMP_pressure;BME280_temperature;BME280_humidity;BME280_pressure;Samples;Min_cycle;Max_cycle;Signal;HPM_P1;HPM_P2
2021/07/08 00:01:19;;;;;;;14.50;10.75;;;14.10;99.90;;;;;;5041058;28;20044;-78
2021/07/08 00:03:45;;;;;;;;;;;14.10;99.90;;;;;;5035265;28;20036;-78
2021/07/08 00:06:11;;;;;;;16.33;12.07;;;14.10;99.90;;;;;;5037769;28;19924;-78
2021/07/08 00:08:36;;;;;;;17.60;12.35;;;14.10;99.90;;;;;;5026182;28;20049;-78
2021/07/08 00:11:03;;;;;;;18.45;12.52;;;14.10;99.90;;;;;;5040757;28;20041;-78
2021/07/08 00:13:30;;;;;;;17.70;11.90;;;14.10;99.90;;;;;;5047270;28;20037;-77
2021/07/08 00:15:57;;;;;;;19.40;12.98;;;14.00;99.90;;;;;;5042094;28;20044;-78
2021/07/08 00:18:25;;;;;;;19.25;12.27;;;14.00;99.90;;;;;;5053643;28;20168;-78
2021/07/08 00:20:52;;;;;;;17.98;13.45;;;14.00;99.90;;;;;;5046220;28;20033;-78
2021/07/08 00:23:20;;;;;;;19.42;13.40;;;14.00;99.90;;;;;;5042879;28;20111;-78
2021/07/08 00:25:47;;;;;;;18.88;13.30;;;13.90;99.90;;;;;;5038849;28;20061;-78
2021/07/08 00:28:14;;;;;;;18.95;12.70;;;13.90;99.90;;;;;;5042192;28;20045;-78
2021/07/08 00:30:41;;;;;;;19.48;12.88;;;13.90;99.90;;;;;;5042820;28;20068;-78
2021/07/08 00:33:07;;;;;;;18.92;13.77;;;13.90;99.90;;;;;;5040172;28;20125;-77
2021/07/08 00:35:34;;;;;;;17.70;13.30;;;13.90;99.90;;;;;;5042204;28;20046;-77
2021/07/08 00:38:01;;;;;;;20.88;12.93;;;13.90;99.90;;;;;;5042661;28;20112;-78
2021/07/08 00:40:26;;;;;;;19.77;14.40;;;13.90;99.90;;;;;;5032313;28;20051;-77
2021/07/08 00:42:52;;;;;;;17.92;13.18;;;13.90;99.90;;;;;;5032900;28;20053;-79
2021/07/08 00:45:19;;;;;;;;;;;13.90;99.90;;;;;;5053879;28;20044;-78
2021/07/08 00:47:45;;;;;;;17.33;12.68;;;13.90;99.90;;;;;;5052351;28;19920;-78
2021/07/08 00:50:12;;;;;;;19.35;13.63;;;13.90;99.90;;;;;;5048471;28;20742;-78
2021/07/08 00:52:39;;;;;;;21.23;14.40;;;13.90;99.90;;;;;;5028658;28;20037;-79
2021/07/08 00:55:05;;;;;;;;;;;14.00;99.90;;;;;;5048416;28;20094;-78
2021/07/08 00:57:31;;;;;;;19.38;13.65;;;14.00;99.90;;;;;;5037056;28;19944;-77
2021/07/08 00:59:57;;;;;;;;;;;14.00;99.90;;;;;;5039452;28;20049;-77
2021/07/08 01:02:23;;;;;;;17.75;13.27;;;13.90;99.90;;;;;;5047014;28;19992;-77
2021/07/08 01:04:50;;;;;;;17.65;13.38;;;13.90;99.90;;;;;;5046681;28;20044;-78
2021/07/08 01:07:19;;;;;;;18.40;13.65;;;13.80;99.90;;;;;;5048344;28;20087;-78
2021/07/08 01:09:45;;;;;;;24.60;15.35;;;13.80;99.90;;;;;;5043381;28;20033;-78
2021/07/08 01:12:11;;;;;;;19.25;14.38;;;13.90;99.90;;;;;;5044527;28;20064;-77
2021/07/08 01:14:37;;;;;;;20.00;13.20;;;13.80;99.90;;;;;;5039992;28;20038;-78
2021/07/08 01:17:05;;;;;;;19.25;13.43;;;13.80;99.90;;;;;;5050817;28;20049;-78
2021/07/08 01:19:33;;;;;;;15.75;13.45;;;13.90;99.90;;;;;;5047746;28;20033;-78
2021/07/08 01:21:59;;;;;;;17.20;13.10;;;13.90;99.90;;;;;;5045515;28;20034;-78
2021/07/08 01:24:25;;;;;;;18.33;13.50;;;13.90;99.90;;;;;;5046493;28;20500;-78
2021/07/08 01:26:52;;;;;;;19.85;14.48;;;13.90;99.90;;;;;;5039066;28;20045;-78
2021/07/08 01:29:19;;;;;;;18.60;14.30;;;13.90;99.90;;;;;;5030020;28;20112;-78
2021/07/08 01:31:45;;;;;;;18.67;13.95;;;13.90;99.90;;;;;;5047106;28;20431;-77
2021/07/08 01:34:10;;;;;;;16.83;12.88;;;13.90;99.90;;;;;;5033212;28;20064;-77
2021/07/08 01:36:37;;;;;;;18.60;12.82;;;13.80;99.90;;;;;;5022212;28;20071;-77
2021/07/08 01:39:04;;;;;;;20.70;13.55;;;13.80;99.90;;;;;;5044924;28;20060;-78
2021/07/08 01:41:30;;;;;;;22.27;13.55;;;13.80;99.90;;;;;;5050360;28;20037;-77
2021/07/08 01:43:56;;;;;;;20.08;13.25;;;13.80;99.90;;;;;;5033186;28;20450;-78
2021/07/08 01:46:22;;;;;;;;;;;13.70;99.90;;;;;;5047823;28;20048;-78
2021/07/08 01:48:50;;;;;;;20.02;13.70;;;13.70;99.90;;;;;;5047818;28;19924;-78
2021/07/08 01:51:22;;;;;;;18.83;13.43;;;13.60;99.90;;;;;;5042381;28;20033;-79
2021/07/08 01:53:48;;;;;;;19.88;13.63;;;13.60;99.90;;;;;;5047168;28;20123;-78
2021/07/08 01:56:17;;;;;;;21.30;15.00;;;13.60;99.90;;;;;;5042981;28;20076;-78
2021/07/08 01:58:44;;;;;;;21.88;14.73;;;13.60;99.90;;;;;;5024657;28;20053;-78
2021/07/08 02:01:10;;;;;;;23.15;15.80;;;13.50;99.90;;;;;;5040215;28;20049;-78
2021/07/08 02:03:36;;;;;;;17.73;13.52;;;13.50;99.90;;;;;;5021155;28;20037;-79
2021/07/08 02:06:03;;;;;;;22.23;13.80;;;13.50;99.90;;;;;;5036649;28;20038;-78
2021/07/08 02:08:29;;;;;;;20.50;13.88;;;13.40;99.90;;;;;;5042327;28;20064;-77
2021/07/08 02:10:55;;;;;;;18.40;14.13;;;13.20;99.90;;;;;;5047904;28;20045;-78
2021/07/08 02:13:21;;;;;;;19.52;13.45;;;13.30;99.90;;;;;;5053607;28;20147;-78
2021/07/08 02:15:46;;;;;;;22.42;13.70;;;13.30;99.90;;;;;;5029599;28;20110;-78
2021/07/08 02:18:12;;;;;;;20.08;14.27;;;13.30;99.90;;;;;;5043247;28;20432;-78
2021/07/08 02:20:39;;;;;;;23.40;14.80;;;13.20;99.90;;;;;;5045897;28;20060;-78
2021/07/08 02:23:05;;;;;;;18.60;13.32;;;13.30;99.90;;;;;;5047811;28;20124;-77
2021/07/08 02:25:31;;;;;;;22.60;15.50;;;13.20;99.90;;;;;;5042657;28;20099;-77
2021/07/08 02:27:58;;;;;;;20.27;14.80;;;13.30;99.90;;;;;;5045308;28;20060;-77
2021/07/08 02:30:26;;;;;;;21.65;14.07;;;13.30;99.90;;;;;;5033894;28;20084;-78
2021/07/08 02:32:55;;;;;;;27.10;15.13;;;13.30;99.90;;;;;;5047532;28;20071;-78
2021/07/08 02:35:23;;;;;;;21.58;14.48;;;13.30;99.90;;;;;;5043581;28;20328;-78
2021/07/08 02:37:51;;;;;;;21.80;14.07;;;13.30;99.90;;;;;;5014973;28;20057;-77
2021/07/08 02:40:21;;;;;;;20.20;14.73;;;13.30;99.90;;;;;;5044925;28;20043;-78
2021/07/08 02:42:50;;;;;;;24.05;16.20;;;13.20;99.90;;;;;;5038485;28;20132;-77
2021/07/08 02:45:21;;;;;;;26.92;17.90;;;13.20;99.90;;;;;;5053763;28;20459;-78
2021/07/08 02:47:48;;;;;;;22.85;16.38;;;13.20;99.90;;;;;;5042752;28;20040;-77
2021/07/08 02:50:15;;;;;;;23.95;16.30;;;13.20;99.90;;;;;;5049311;28;20124;-78
2021/07/08 02:52:42;;;;;;;25.65;15.55;;;13.20;99.90;;;;;;5022981;28;20411;-77
2021/07/08 02:55:09;;;;;;;27.77;15.52;;;13.20;99.90;;;;;;5042618;28;20063;-78
2021/07/08 02:57:35;;;;;;;22.98;16.08;;;13.20;99.90;;;;;;5036688;28;20037;-77
2021/07/08 03:00:00;;;;;;;26.75;16.48;;;13.10;99.90;;;;;;5027909;28;20072;-78
2021/07/08 03:02:26;;;;;;;;;;;13.10;99.90;;;;;;5027428;28;20124;-78
2021/07/08 03:04:53;;;;;;;27.70;17.15;;;13.10;99.90;;;;;;5054550;28;19970;-78
2021/07/08 03:07:18;;;;;;;22.15;16.52;;;13.10;99.90;;;;;;5038179;28;20106;-77
2021/07/08 03:09:44;;;;;;;25.02;16.85;;;13.20;99.90;;;;;;5037336;28;20041;-77
2021/07/08 03:12:11;;;;;;;23.77;15.93;;;13.30;99.90;;;;;;5045999;28;20068;-78
2021/07/08 03:14:37;;;;;;;21.55;14.93;;;13.30;99.90;;;;;;5008661;28;20447;-78
2021/07/08 03:17:02;;;;;;;25.27;17.05;;;13.30;99.90;;;;;;5055609;28;20415;-78
2021/07/08 03:19:28;;;;;;;26.70;17.05;;;13.20;99.90;;;;;;5035524;28;20033;-78
2021/07/08 03:21:54;;;;;;;23.67;15.35;;;13.20;99.90;;;;;;5044008;28;20041;-78
2021/07/08 03:24:20;;;;;;;21.73;14.68;;;13.20;99.90;;;;;;5034423;28;20034;-78
2021/07/08 03:26:46;;;;;;;23.65;15.38;;;13.20;99.90;;;;;;5037934;28;20044;-77
2021/07/08 03:29:12;;;;;;;17.42;12.88;;;13.20;99.90;;;;;;5045113;28;20052;-78
2021/07/08 03:31:38;;;;;;;18.88;12.95;;;13.10;99.90;;;;;;5024146;28;20133;-77
2021/07/08 03:34:05;;;;;;;24.77;16.92;;;13.10;99.90;;;;;;5011788;28;20036;-77
2021/07/08 03:36:31;;;;;;;26.48;18.10;;;13.10;99.90;;;;;;5018622;28;20378;-77
2021/07/08 03:38:59;;;;;;;24.17;16.40;;;13.20;99.90;;;;;;5044947;28;20045;-77
2021/07/08 03:41:25;;;;;;;21.63;14.55;;;13.20;99.90;;;;;;5049525;28;20029;-78
2021/07/08 03:43:52;;;;;;;22.08;15.43;;;13.20;99.90;;;;;;5034817;28;20068;-78
2021/07/08 03:46:18;;;;;;;22.15;14.82;;;13.20;99.90;;;;;;5038421;28;20060;-77
2021/07/08 03:48:44;;;;;;;20.98;13.98;;;13.20;99.90;;;;;;5041571;28;20045;-78
2021/07/08 03:51:09;;;;;;;20.85;14.15;;;13.10;99.90;;;;;;5026796;28;20035;-77
2021/07/08 03:53:35;;;;;;;19.88;14.45;;;13.10;99.90;;;;;;5051574;28;20036;-77
2021/07/08 03:56:01;;;;;;;21.83;14.68;;;13.10;99.90;;;;;;5036691;28;20060;-78
2021/07/08 03:58:28;;;;;;;18.33;13.20;;;13.10;99.90;;;;;;5029633;28;20072;-78
2021/07/08 04:00:56;;;;;;;22.30;15.52;;;13.10;99.90;;;;;;5050564;28;20037;-77
2021/07/08 04:03:22;;;;;;;;;;;13.20;99.90;;;;;;5046079;28;20060;-78
2021/07/08 04:05:48;;;;;;;20.27;13.75;;;13.20;99.90;;;;;;5039796;28;19963;-78
2021/07/08 04:08:14;;;;;;;;;;;13.20;99.90;;;;;;5026994;28;20120;-79
2021/07/08 04:10:41;;;;;;;24.00;15.00;;;13.20;99.90;;;;;;5050697;28;19924;-77
2021/07/08 04:13:13;;;;;;;24.33;16.52;;;13.20;99.90;;;;;;5038784;28;20029;-78
2021/07/08 04:15:39;;;;;;;25.73;15.90;;;13.30;99.90;;;;;;5046436;28;20032;-77
2021/07/08 04:18:07;;;;;;;23.30;15.80;;;13.30;99.90;;;;;;5037362;28;20416;-78
2021/07/08 04:20:52;;;;;;;24.63;16.25;;;13.40;99.90;;;;;;5034726;28;20486;-78
2021/07/08 04:23:20;;;;;;;19.88;14.48;;;13.40;99.90;;;;;;5036877;28;20343;-79
2021/07/08 04:25:46;;;;;;;20.65;14.40;;;13.50;99.90;;;;;;5033156;28;20056;-78
2021/07/08 04:28:12;;;;;;;22.92;14.90;;;13.50;99.90;;;;;;5043769;28;20041;-78
2021/07/08 04:30:41;;;;;;;21.45;15.57;;;13.50;99.90;;;;;;5040092;28;20045;-78
2021/07/08 04:33:07;;;;;;;21.77;15.15;;;13.50;99.90;;;;;;5014192;28;20051;-78
2021/07/08 04:35:53;;;;;;;19.02;13.63;;;13.60;99.90;;;;;;5033795;28;20040;-78
2021/07/08 04:38:19;;;;;;;20.77;14.45;;;13.70;99.90;;;;;;5052806;28;20048;-78
2021/07/08 04:41:07;;;;;;;20.77;14.88;;;13.70;99.90;;;;;;5029687;28;20387;-78
2021/07/08 04:43:33;;;;;;;21.65;14.70;;;13.80;99.90;;;;;;5044156;28;20045;-78
2021/07/08 04:45:59;;;;;;;26.75;16.80;;;13.90;99.90;;;;;;5023128;28;20057;-78
2021/07/08 04:48:28;;;;;;;24.73;16.27;;;13.90;99.90;;;;;;5052689;28;20044;-77
2021/07/08 04:50:54;;;;;;;24.60;17.42;;;14.00;99.90;;;;;;5035722;28;20041;-78
2021/07/08 04:53:22;;;;;;;22.83;16.63;;;14.10;99.90;;;;;;5048900;28;20466;-77
2021/07/08 04:55:47;;;;;;;24.70;17.33;;;14.20;99.90;;;;;;5040136;28;20095;-78
2021/07/08 04:58:13;;;;;;;26.63;18.75;;;14.30;99.90;;;;;;5037616;28;20064;-78
2021/07/08 05:00:39;;;;;;;25.45;17.48;;;14.40;99.90;;;;;;5041596;28;20064;-78
2021/07/08 05:03:07;;;;;;;25.00;17.95;;;14.50;99.90;;;;;;5022745;28;20064;-77
2021/07/08 05:05:33;;;;;;;26.73;18.42;;;14.70;99.90;;;;;;5026236;28;20033;-77
2021/07/08 05:07:59;;;;;;;24.55;17.17;;;14.80;99.90;;;;;;5041215;28;20548;-78
2021/07/08 05:10:24;;;;;;;;;;;14.90;99.90;;;;;;5044184;28;20061;-77
2021/07/08 05:12:50;;;;;;;24.17;18.23;;;15.00;99.90;;;;;;5025922;28;19921;-77
2021/07/08 05:15:16;;;;;;;;;;;15.10;99.90;;;;;;5032544;28;20041;-79
2021/07/08 05:17:46;;;;;;;22.38;16.80;;;15.20;99.90;;;;;;5043203;28;20026;-77
2021/07/08 05:20:14;;;;;;;23.27;17.70;;;15.30;99.90;;;;;;5043642;28;20033;-78
2021/07/08 05:22:41;;;;;;;26.33;17.85;;;15.40;99.90;;;;;;5028398;28;20504;-78
2021/07/08 05:25:09;;;;;;;24.90;17.17;;;15.50;99.90;;;;;;5034769;28;20041;-77
2021/07/08 05:27:36;;;;;;;26.48;18.90;;;15.60;99.90;;;;;;5032739;28;20111;-77
2021/07/08 05:30:04;;;;;;;26.10;18.50;;;15.70;99.90;;;;;;5043775;28;20037;-77
2021/07/08 05:32:29;;;;;;;26.02;17.73;;;15.80;99.90;;;;;;5023537;28;20537;-76
2021/07/08 05:34:55;;;;;;;26.73;19.55;;;15.90;99.90;;;;;;5036523;28;20034;-76
2021/07/08 05:37:21;;;;;;;29.50;18.98;;;16.00;99.90;;;;;;5031038;28;20037;-77
2021/07/08 05:39:47;;;;;;;24.02;17.80;;;16.20;99.90;;;;;;5043767;28;20045;-77
2021/07/08 05:42:14;;;;;;;23.63;18.50;;;16.20;99.90;;;;;;5044034;28;20044;-77
2021/07/08 05:44:40;;;;;;;26.90;19.27;;;16.40;99.90;;;;;;5040358;28;20029;-77
2021/07/08 05:47:06;;;;;;;;;;;16.50;99.90;;;;;;5045523;28;20052;-77
2021/07/08 05:49:32;;;;;;;23.80;16.17;;;16.60;99.90;;;;;;5051698;28;19927;-77
2021/07/08 05:51:57;;;;;;;;;;;16.70;99.90;;;;;;5042167;28;20079;-77
2021/07/08 05:54:23;;;;;;;17.25;13.52;;;16.80;99.90;;;;;;5044355;28;19982;-77
2021/07/08 05:56:49;;;;;;;18.42;13.35;;;17.00;99.90;;;;;;5042821;28;20565;-77
2021/07/08 05:59:14;;;;;;;;;;;17.10;99.90;;;;;;5034529;28;20467;-77
2021/07/08 06:01:40;;;;;;;18.00;13.48;;;17.30;99.90;;;;;;5030345;28;19921;-77
2021/07/08 06:04:06;;;;;;;18.67;12.55;;;17.40;99.90;;;;;;5040659;28;20045;-77
2021/07/08 06:06:31;;;;;;;;;;;17.50;99.90;;;;;;5041025;28;20041;-77
2021/07/08 06:08:57;;;;;;;15.15;11.75;;;17.60;99.90;;;;;;5040734;28;19924;-77
2021/07/08 06:11:23;;;;;;;;;;;17.80;99.90;;;;;;5048637;28;20468;-77
2021/07/08 06:13:49;;;;;;;13.32;9.98;;;17.80;99.90;;;;;;5040373;28;19931;-77
2021/07/08 06:16:14;;;;;;;;;;;17.80;99.90;;;;;;5054419;28;20402;-77
2021/07/08 06:18:40;;;;;;;16.75;10.68;;;17.80;99.90;;;;;;5038598;28;19986;-76
2021/07/08 06:21:06;;;;;;;;;;;17.80;99.90;;;;;;5053139;28;20466;-77
2021/07/08 06:23:32;;;;;;;13.68;10.32;;;17.80;99.90;;;;;;5044885;28;20531;-77
2021/07/08 06:25:58;;;;;;;;;;;18.00;99.90;;;;;;5038846;28;20119;-76
2021/07/08 06:28:24;;;;;;;13.95;10.98;;;18.00;99.90;;;;;;5039679;28;19985;-77
2021/07/08 06:30:50;;;;;;;;;;;18.10;99.90;;;;;;5050771;28;20048;-76
2021/07/08 06:33:16;;;;;;;16.58;11.50;;;18.30;99.90;;;;;;5042049;28;19924;-77
2021/07/08 06:35:42;;;;;;;;;;;18.40;99.90;;;;;;5050979;28;20036;-77
2021/07/08 06:38:08;;;;;;;13.68;10.25;;;18.60;99.90;;;;;;5056663;28;20003;-77
2021/07/08 06:40:34;;;;;;;14.38;10.93;;;18.70;99.90;;;;;;5028240;28;20111;-77
2021/07/08 06:43:00;;;;;;;13.75;10.05;;;18.80;99.90;;;;;;5048312;28;20041;-77
2021/07/08 06:45:27;;;;;;;;;;;18.90;99.90;;;;;;5036277;28;20060;-77
2021/07/08 06:48:01;;;;;;;12.82;9.98;;;19.00;99.90;;;;;;5036316;28;19921;-77
2021/07/08 06:50:27;;;;;;;12.70;9.98;;;19.20;99.90;;;;;;5043114;28;20107;-77
2021/07/08 06:52:53;;;;;;;14.52;11.63;;;19.30;99.90;;;;;;5034922;28;20096;-77
2021/07/08 06:55:19;;;;;;;;;;;19.40;99.90;;;;;;5013565;28;20037;-77
2021/07/08 06:57:51;;;;;;;13.93;11.25;;;19.50;99.90;;;;;;5037225;28;20009;-78
2021/07/08 07:00:26;;;;;;;15.43;10.45;;;19.60;99.90;;;;;;5035407;28;20045;-77
2021/07/08 07:02:54;;;;;;;12.98;10.18;;;19.70;99.90;;;;;;5044808;28;20040;-77
2021/07/08 07:05:22;;;;;;;14.20;10.13;;;19.70;99.90;;;;;;5036885;28;20045;-77
2021/07/08 07:07:48;;;;;;;15.68;11.15;;;19.70;99.90;;;;;;5036163;28;20048;-83
2021/07/08 07:10:15;;;;;;;13.52;10.50;;;19.70;99.90;;;;;;5044691;28;20049;-82
2021/07/08 07:12:46;;;;;;;13.68;9.38;;;19.70;99.90;;;;;;5045823;28;20029;-82
2021/07/08 07:15:15;;;;;;;13.02;9.48;;;19.70;99.90;;;;;;5036966;28;20045;-82
2021/07/08 07:17:41;;;;;;;15.57;9.25;;;19.70;99.90;;;;;;5034757;28;20043;-81
2021/07/08 07:20:09;;;;;;;14.10;9.60;;;19.80;99.90;;;;;;5036278;28;20041;-82
2021/07/08 07:22:37;;;;;;;12.05;9.07;;;19.80;99.90;;;;;;5029132;28;20090;-82
2021/07/08 07:25:06;;;;;;;10.95;9.35;;;19.90;99.90;;;;;;5034154;28;20041;-82
2021/07/08 07:27:32;;;;;;;11.48;9.13;;;20.00;99.90;;;;;;5034526;28;20037;-83
2021/07/08 07:30:02;;;;;;;12.48;8.82;;;20.10;99.90;;;;;;5022107;28;20060;-82
2021/07/08 07:32:29;;;;;;;12.32;9.18;;;20.20;99.90;;;;;;5035159;28;20060;-80
2021/07/08 07:34:55;;;;;;;10.15;8.60;;;20.20;99.90;;;;;;5014957;28;20045;-82
2021/07/08 07:37:21;;;;;;;12.20;8.35;;;20.20;99.90;;;;;;5048596;28;20037;-82
2021/07/08 07:39:47;;;;;;;12.77;9.23;;;20.30;99.90;;;;;;5017134;28;20091;-81
2021/07/08 07:42:13;;;;;;;;;;;20.30;99.90;;;;;;5031995;28;20087;-81
2021/07/08 07:44:44;;;;;;;13.13;9.02;;;20.40;99.90;;;;;;5038138;28;19921;-82
2021/07/08 07:47:11;;;;;;;14.80;9.20;;;20.60;99.90;;;;;;5035506;28;20471;-82
2021/07/08 07:49:37;;;;;;;13.77;8.73;;;20.70;99.90;;;;;;5032570;28;20177;-82
2021/07/08 07:52:07;;;;;;;11.68;8.63;;;20.80;99.90;;;;;;5042310;28;20045;-82
2021/07/08 07:54:34;;;;;;;9.18;7.35;;;20.90;99.90;;;;;;5036720;28;20052;-82
2021/07/08 07:57:01;;;;;;;13.60;9.65;;;20.90;99.90;;;;;;5029421;28;20466;-82
2021/07/08 07:59:28;;;;;;;11.40;8.45;;;21.00;99.90;;;;;;5042257;28;20045;-82
2021/07/08 08:01:54;;;;;;;17.63;8.68;;;21.00;99.90;;;;;;5038888;28;20048;-82
2021/07/08 08:04:20;;;;;;;10.05;8.35;;;21.20;99.90;;;;;;5055136;28;20128;-83
2021/07/08 08:09:30;;;;;;;10.77;7.95;;;21.60;99.90;;;;;;5023211;28;20044;-83
2021/07/08 08:11:56;;;;;;;11.07;8.35;;;22.10;99.90;;;;;;5039233;28;20041;-82
2021/07/08 08:14:22;;;;;;;10.23;7.93;;;22.50;99.90;;;;;;5050615;28;20033;-82
2021/07/08 08:16:48;;;;;;;9.82;7.38;;;22.80;99.90;;;;;;5054124;28;20037;-82
2021/07/08 08:19:14;;;;;;;9.35;7.80;;;23.00;99.90;;;;;;5038200;28;20037;-82
2021/07/08 08:21:39;;;;;;;9.07;7.63;;;23.20;99.90;;;;;;5053554;28;20037;-82
2021/07/08 08:24:05;;;;;;;9.82;7.10;;;23.20;99.90;;;;;;5045407;28;20037;-83
2021/07/08 08:26:31;;;;;;;10.43;7.15;;;23.30;99.90;;;;;;5029523;28;20038;-82
2021/07/08 08:28:57;;;;;;;12.18;7.18;;;23.40;99.90;;;;;;5036320;28;20048;-83
2021/07/08 08:31:23;;;;;;;8.00;6.30;;;23.40;99.90;;;;;;5043396;28;20059;-82
2021/07/08 08:33:48;;;;;;;12.48;6.55;;;23.40;99.90;;;;;;5041267;28;20109;-82
2021/07/08 08:36:14;;;;;;;11.73;7.30;;;23.40;99.90;;;;;;5035824;28;20048;-82
2021/07/08 08:38:40;;;;;;;12.25;6.65;;;23.30;99.90;;;;;;5018600;28;20388;-82
2021/07/08 08:41:06;;;;;;;8.55;5.82;;;23.10;99.90;;;;;;5034487;28;20083;-82
2021/07/08 08:43:33;;;;;;;11.32;7.45;;;22.90;99.90;;;;;;5035412;28;20703;-83
2021/07/08 08:46:00;;;;;;;9.02;6.20;;;22.80;99.90;;;;;;5017797;28;20041;-82
2021/07/08 08:48:26;;;;;;;8.57;5.97;;;22.80;99.90;;;;;;5014730;28;20044;-82
2021/07/08 08:50:52;;;;;;;9.27;6.30;;;22.70;99.90;;;;;;5034933;28;20037;-82
2021/07/08 08:53:18;;;;;;;8.63;7.15;;;22.60;99.90;;;;;;5030386;28;20474;-84
2021/07/08 08:55:46;;;;;;;10.20;7.78;;;22.80;99.90;;;;;;5022382;28;20048;-84
2021/07/08 08:58:20;;;;;;;11.93;7.70;;;22.80;99.90;;;;;;5018338;28;20094;-83
2021/07/08 09:00:56;;;;;;;10.27;7.13;;;22.70;99.90;;;;;;5035189;28;20068;-83
2021/07/08 09:03:27;;;;;;;10.75;7.75;;;22.70;99.90;;;;;;5049501;28;20529;-82
2021/07/08 09:06:06;;;;;;;11.70;7.47;;;22.80;99.90;;;;;;5052936;28;20040;-82
2021/07/08 09:08:37;;;;;;;9.35;7.50;;;22.80;99.90;;;;;;5034404;28;20041;-82
2021/07/08 09:11:09;;;;;;;10.43;6.88;;;22.80;99.90;;;;;;5033856;28;20057;-82
2021/07/08 09:13:49;;;;;;;9.63;6.38;;;22.80;99.90;;;;;;5034422;28;20068;-82
2021/07/08 09:16:21;;;;;;;12.23;6.35;;;22.90;99.90;;;;;;5039454;28;20099;-83
2021/07/08 09:18:57;;;;;;;8.38;6.53;;;23.10;99.90;;;;;;5042535;28;20038;-81
2021/07/08 09:21:24;;;;;;;10.63;6.57;;;23.40;99.90;;;;;;5033796;28;20108;-82
2021/07/08 09:24:10;;;;;;;7.25;6.18;;;23.60;99.90;;;;;;5030909;28;20543;-83
2021/07/08 09:26:38;;;;;;;6.60;5.80;;;23.80;99.60;;;;;;5043122;28;20041;-82
2021/07/08 09:29:18;;;;;;;7.75;5.32;;;23.80;97.70;;;;;;5032717;28;20051;-81
2021/07/08 09:32:11;;;;;;;8.18;6.13;;;23.80;99.10;;;;;;5034601;28;20056;-83
2021/07/08 09:34:40;;;;;;;6.75;5.75;;;23.90;98.50;;;;;;5035091;28;20049;-82
2021/07/08 09:37:10;;;;;;;8.70;5.80;;;23.90;99.60;;;;;;5052956;28;20486;-83
2021/07/08 09:39:37;;;;;;;7.93;6.63;;;24.10;96.90;;;;;;5036438;28;20044;-82
2021/07/08 09:42:04;;;;;;;9.95;6.30;;;24.00;96.70;;;;;;5049777;28;20048;-85
2021/07/08 09:44:30;;;;;;;8.38;5.82;;;23.80;98.20;;;;;;5018679;28;20041;-81
2021/07/08 09:46:57;;;;;;;11.43;6.25;;;23.80;99.90;;;;;;5017737;28;20049;-81
2021/07/08 09:49:25;;;;;;;7.95;6.25;;;23.80;99.90;;;;;;5034732;28;20041;-81
2021/07/08 09:51:53;;;;;;;7.03;5.78;;;24.00;99.40;;;;;;5032773;28;20039;-81
2021/07/08 09:55:30;;;;;;;7.32;6.05;;;24.30;99.90;;;;;;5055234;28;20115;-82
2021/07/08 09:57:45;;;;;;;8.32;6.03;;;24.60;97.40;;;;;;5051947;28;20053;-81
2021/07/08 10:00:22;;;;;;;11.10;6.95;;;24.80;96.20;;;;;;5073190;28;20084;-82
2021/07/08 10:02:52;;;;;;;9.93;6.20;;;24.80;96.50;;;;;;5047216;28;20032;-82
2021/07/08 10:05:18;;;;;;;8.68;6.68;;;24.70;97.20;;;;;;5039240;28;20044;-80
2021/07/08 10:07:46;;;;;;;9.20;6.93;;;24.80;97.20;;;;;;5048445;28;20083;-82
2021/07/08 10:10:13;;;;;;;11.10;7.55;;;24.90;95.80;;;;;;5044118;28;20041;-80
2021/07/08 10:12:40;;;;;;;9.50;6.60;;;24.80;95.50;;;;;;5049361;28;20075;-82
2021/07/08 10:15:09;;;;;;;8.40;6.18;;;24.80;96.80;;;;;;5033908;28;20041;-82
2021/07/08 10:17:36;;;;;;;8.82;6.97;;;24.80;95.70;;;;;;5042389;28;20106;-81
2021/07/08 10:20:04;;;;;;;10.13;6.90;;;24.70;93.50;;;;;;5047297;28;20040;-81
2021/07/08 10:22:31;;;;;;;11.10;6.35;;;24.40;94.30;;;;;;5044978;28;20370;-80
2021/07/08 10:24:56;;;;;;;7.50;6.55;;;24.30;95.80;;;;;;5043214;28;20100;-80
2021/07/08 10:27:23;;;;;;;8.70;6.90;;;24.30;96.80;;;;;;5043784;28;20111;-81
2021/07/08 10:29:50;;;;;;;9.38;7.10;;;24.20;96.50;;;;;;5034299;28;20037;-79
2021/07/08 10:32:16;;;;;;;8.45;7.05;;;24.10;95.90;;;;;;5046547;28;20029;-83
2021/07/08 10:34:51;;;;;;;7.13;6.35;;;23.90;95.70;;;;;;5046929;28;20046;-83
2021/07/08 10:37:40;;;;;;;9.25;6.32;;;23.60;96.90;;;;;;5037201;28;20471;-82
2021/07/08 10:40:23;;;;;;;7.57;5.60;;;23.60;97.40;;;;;;5046593;28;20051;-82
2021/07/08 10:42:49;;;;;;;8.10;5.75;;;23.60;97.20;;;;;;5033763;28;20349;-81
2021/07/08 10:45:34;;;;;;;7.57;5.18;;;23.60;96.90;;;;;;5050693;28;20047;-81
2021/07/08 10:48:19;;;;;;;10.05;5.95;;;23.60;96.40;;;;;;5031159;28;20387;-81
2021/07/08 10:50:47;;;;;;;7.10;5.38;;;23.50;96.70;;;;;;5038490;28;20543;-80
2021/07/08 10:53:23;;;;;;;8.30;5.68;;;23.70;97.20;;;;;;5038094;28;20112;-81
2021/07/08 10:55:50;;;;;;;;;;;23.90;97.30;;;;;;5047878;28;20037;-81
2021/07/08 10:58:50;;;;;;;8.18;5.82;;;24.10;97.80;;;;;;5035806;28;19917;-80
2021/07/08 11:01:22;;;;;;;10.73;5.95;;;24.30;95.20;;;;;;5035543;28;20052;-81
2021/07/08 11:03:52;;;;;;;9.32;5.72;;;24.20;95.10;;;;;;5024375;28;20457;-81
2021/07/08 11:06:33;;;;;;;9.75;5.43;;;24.20;95.10;;;;;;5047327;28;20120;-80
2021/07/08 11:09:04;;;;;;;8.77;5.78;;;24.30;94.60;;;;;;5047373;28;20111;-80
2021/07/08 11:11:33;;;;;;;7.22;5.10;;;24.40;94.30;;;;;;5026777;28;20034;-81
2021/07/08 11:14:08;;;;;;;7.18;5.30;;;24.60;94.70;;;;;;5033903;28;20048;-82
2021/07/08 11:16:49;;;;;;;7.13;5.38;;;25.00;93.20;;;;;;5040088;28;20102;-82
2021/07/08 11:19:21;;;;;;;7.30;5.68;;;25.00;94.10;;;;;;5037536;28;20037;-81
2021/07/08 11:21:50;;;;;;;7.45;5.55;;;24.90;91.10;;;;;;5032545;28;20804;-81
2021/07/08 11:24:27;;;;;;;8.05;5.70;;;24.80;91.20;;;;;;5046026;28;20043;-82
2021/07/08 11:27:04;;;;;;;9.43;5.00;;;24.70;90.90;;;;;;5038076;28;20045;-81
2021/07/08 11:29:41;;;;;;;5.80;5.20;;;24.60;90.70;;;;;;5046658;28;20049;-81
2021/07/08 11:32:35;;;;;;;5.40;4.70;;;24.70;92.00;;;;;;5044247;28;20045;-82
2021/07/08 11:35:06;;;;;;;6.85;4.72;;;24.90;90.40;;;;;;5044303;28;20034;-81
2021/07/08 11:37:40;;;;;;;6.32;4.72;;;25.20;87.40;;;;;;5033269;28;20052;-80
2021/07/08 11:40:12;;;;;;;8.25;4.97;;;25.40;86.10;;;;;;5033305;28;20038;-81
2021/07/08 11:42:39;;;;;;;6.97;4.43;;;25.50;86.30;;;;;;5035553;28;20644;-81
2021/07/08 11:45:07;;;;;;;6.35;4.25;;;25.60;85.40;;;;;;5045626;28;20106;-82
2021/07/08 11:47:43;;;;;;;6.22;4.32;;;25.70;80.90;;;;;;5042307;28;20037;-82
2021/07/08 11:50:31;;;;;;;5.43;4.35;;;25.60;80.80;;;;;;5033390;28;20075;-79
2021/07/08 11:53:20;;;;;;;6.65;4.40;;;25.60;80.10;;;;;;5044370;28;20037;-81
2021/07/08 11:55:51;;;;;;;5.85;4.22;;;25.70;79.70;;;;;;5040834;28;20045;-81
2021/07/08 11:58:22;;;;;;;6.00;4.32;;;25.50;79.30;;;;;;5031247;28;20474;-81
2021/07/08 12:00:54;;;;;;;6.97;4.90;;;25.40;79.80;;;;;;5030420;28;20050;-81
2021/07/08 12:03:36;;;;;;;7.55;5.78;;;25.20;81.90;;;;;;5049330;28;20057;-81
2021/07/08 12:06:12;;;;;;;8.40;6.28;;;25.10;84.70;;;;;;5024096;28;20470;-80
2021/07/08 12:08:40;;;;;;;;;;;25.10;85.00;;;;;;5043838;28;20041;-81
2021/07/08 12:11:15;;;;;;;10.88;5.43;;;24.80;87.50;;;;;;5030806;28;19917;-81
2021/07/08 12:13:59;;;;;;;6.00;5.07;;;24.80;88.80;;;;;;5030764;28;20042;-80
2021/07/08 12:16:30;;;;;;;5.72;5.00;;;24.80;90.50;;;;;;5031426;28;20044;-81
2021/07/08 12:19:00;;;;;;;6.88;4.50;;;24.90;87.80;;;;;;5050686;28;20033;-81
2021/07/08 12:21:28;;;;;;;7.88;5.38;;;25.00;86.60;;;;;;5031438;28;20081;-81
2021/07/08 12:23:57;;;;;;;7.68;5.20;;;24.90;86.60;;;;;;5030527;28;20038;-81
2021/07/08 12:26:35;;;;;;;6.68;5.65;;;24.90;86.60;;;;;;5029913;28;20037;-80
2021/07/08 12:29:14;;;;;;;8.52;5.10;;;25.00;85.10;;;;;;5028372;28;20073;-81
2021/07/08 12:32:12;;;;;;;7.35;5.32;;;24.90;87.80;;;;;;5049976;28;20652;-80
2021/07/08 12:34:44;;;;;;;7.55;5.05;;;25.30;87.50;;;;;;5030881;28;20033;-81
2021/07/08 12:37:20;;;;;;;5.95;4.35;;;25.60;84.90;;;;;;5033978;28;20045;-80
2021/07/08 12:40:11;;;;;;;6.83;4.30;;;25.70;81.40;;;;;;5016892;28;20489;-80
2021/07/08 12:42:40;;;;;;;5.53;4.28;;;25.90;78.80;;;;;;5033876;28;20092;-80
2021/07/08 12:45:12;;;;;;;5.07;3.97;;;26.10;76.50;;;;;;5030300;28;20116;-80
2021/07/08 12:47:41;;;;;;;7.13;4.47;;;26.20;76.80;;;;;;5033870;28;20029;-80
2021/07/08 12:50:09;;;;;;;4.68;4.18;;;26.30;77.30;;;;;;5016866;28;20046;-80
2021/07/08 12:52:38;;;;;;;6.80;4.20;;;26.40;77.70;;;;;;5023166;28;20399;-80
2021/07/08 12:55:06;;;;;;;5.18;3.97;;;26.50;76.40;;;;;;5053024;28;20095;-80